createdAt,value
2019-05-17T00:02:07.695Z,4.50
2019-05-17T00:04:36.440Z,5.00
2019-05-17T00:07:06.596Z,4.00
2019-05-17T00:09:37.440Z,5.15
2019-05-17T00:12:07.505Z,4.55
2019-05-17T00:14:36.556Z,5.08
2019-05-17T00:17:06.762Z,4.33
2019-05-17T00:19:36.894Z,5.10
2019-05-17T00:22:07.340Z,4.85
2019-05-17T00:24:37.028Z,5.25
2019-05-17T00:27:06.711Z,4.40
2019-05-17T00:29:37.140Z,4.55
2019-05-17T00:32:06.428Z,4.92
2019-05-17T00:34:37.513Z,4.65
2019-05-17T00:37:07.083Z,4.53
2019-05-17T00:39:36.696Z,4.80
2019-05-17T00:42:06.955Z,4.70
2019-05-17T00:44:36.592Z,5.42
2019-05-17T00:47:06.492Z,5.05
2019-05-17T00:49:37.128Z,4.92
2019-05-17T00:52:07.211Z,5.50
2019-05-17T00:54:36.276Z,5.80
2019-05-17T00:57:07.265Z,5.30
2019-05-17T00:59:36.870Z,5.12
2019-05-17T01:02:06.936Z,5.30
2019-05-17T01:04:36.877Z,5.30
2019-05-17T01:07:06.889Z,5.22
2019-05-17T01:09:36.611Z,5.37
2019-05-17T01:12:07.136Z,5.70
2019-05-17T01:14:37.185Z,5.17
2019-05-17T01:17:07.248Z,4.85
2019-05-17T01:19:36.654Z,5.00
2019-05-17T01:22:07.555Z,5.45
2019-05-17T01:24:36.837Z,4.92
2019-05-17T01:27:06.620Z,5.08
2019-05-17T01:29:36.359Z,5.28
2019-05-17T01:32:06.798Z,5.20
2019-05-17T01:34:37.607Z,5.40
2019-05-17T01:37:06.583Z,5.83
2019-05-17T01:39:37.466Z,5.10
2019-05-17T01:42:06.789Z,5.90
2019-05-17T01:44:36.726Z,4.78
2019-05-17T01:47:07.401Z,5.58
2019-05-17T01:49:36.394Z,5.47
2019-05-17T01:52:07.303Z,6.00
2019-05-17T01:54:36.268Z,5.65
2019-05-17T01:57:07.129Z,5.80
2019-05-17T01:59:37.295Z,5.78
2019-05-17T02:02:08.924Z,6.20
2019-05-17T02:04:38.463Z,6.80
2019-05-17T02:07:26.744Z,6.67
2019-05-17T02:09:56.853Z,5.97
2019-05-17T02:12:26.761Z,6.85
2019-05-17T02:14:57.561Z,6.80
2019-05-17T02:17:26.548Z,7.03
2019-05-17T02:19:57.319Z,6.25
2019-05-17T02:22:27.208Z,6.45
2019-05-17T02:24:56.841Z,6.58
2019-05-17T02:27:32.157Z,6.72
2019-05-17T02:29:56.204Z,7.62
2019-05-17T02:32:24.791Z,7.20
2019-05-17T02:34:53.376Z,6.95
2019-05-17T02:37:23.113Z,7.50
2019-05-17T02:40:02.374Z,7.10
2019-05-17T02:42:22.859Z,7.08
2019-05-17T02:44:53.118Z,7.65
2019-05-17T02:47:23.157Z,7.08
2019-05-17T02:49:52.654Z,7.03
2019-05-17T02:52:22.961Z,7.78
2019-05-17T02:54:52.620Z,8.00
2019-05-17T02:57:23.261Z,7.92
2019-05-17T02:59:52.573Z,7.12
2019-05-17T03:02:27.551Z,7.45
2019-05-17T03:04:52.579Z,7.80
2019-05-17T03:07:23.222Z,8.10
2019-05-17T03:09:53.428Z,7.62
2019-05-17T03:12:23.773Z,7.90
2019-05-17T03:14:53.001Z,8.35
2019-05-17T03:17:22.950Z,8.40
2019-05-17T03:19:52.928Z,7.90
2019-05-17T03:22:23.087Z,8.15
2019-05-17T03:24:53.281Z,8.23
2019-05-17T03:27:23.273Z,8.18
2019-05-17T03:29:53.717Z,8.20
2019-05-17T03:32:26.589Z,8.18
2019-05-17T03:34:56.070Z,8.00
2019-05-17T03:37:29.964Z,8.08
2019-05-17T03:39:54.925Z,7.35
2019-05-17T03:42:23.684Z,8.28
2019-05-17T03:44:53.044Z,8.45
2019-05-17T03:47:23.423Z,8.63
2019-05-17T03:49:53.117Z,8.40
2019-05-17T03:52:22.891Z,8.60
2019-05-17T03:54:53.150Z,8.10
2019-05-17T03:57:23.881Z,8.50
2019-05-17T03:59:52.587Z,8.53
2019-05-17T04:02:23.095Z,8.35
2019-05-17T04:04:53.155Z,8.75
2019-05-17T04:07:23.619Z,8.75
2019-05-17T04:09:53.374Z,8.63
2019-05-17T04:12:23.157Z,8.35
2019-05-17T04:14:53.345Z,8.80
2019-05-17T04:17:23.000Z,8.70
2019-05-17T04:19:53.303Z,9.35
2019-05-17T04:22:23.942Z,8.80
2019-05-17T04:24:53.632Z,8.70
2019-05-17T04:27:26.771Z,8.10
2019-05-17T04:29:55.553Z,8.58
2019-05-17T04:32:25.111Z,9.23
2019-05-17T04:34:54.264Z,8.63
2019-05-17T04:37:23.167Z,7.92
2019-05-17T04:39:52.674Z,8.43
2019-05-17T04:42:22.637Z,7.72
2019-05-17T04:44:52.702Z,8.63
2019-05-17T04:47:22.990Z,7.87
2019-05-17T04:49:53.568Z,7.92
2019-05-17T04:52:22.967Z,7.78
2019-05-17T04:54:53.783Z,7.70
2019-05-17T04:57:23.450Z,7.78
2019-05-17T04:59:52.735Z,8.05
2019-05-17T05:02:23.627Z,8.20
2019-05-17T05:04:53.341Z,7.67
2019-05-17T05:07:22.734Z,7.60
2019-05-17T05:09:52.345Z,7.17
2019-05-17T05:12:22.862Z,7.42
2019-05-17T05:14:52.377Z,7.40
2019-05-17T05:17:22.177Z,7.10
2019-05-17T05:19:53.107Z,7.10
2019-05-17T05:22:22.578Z,7.87
2019-05-17T05:24:52.475Z,6.70
2019-05-17T05:27:22.263Z,6.87
2019-05-17T05:29:52.183Z,6.87
2019-05-17T05:32:22.071Z,7.67
2019-05-17T05:34:52.005Z,7.08
2019-05-17T05:37:23.080Z,6.95
2019-05-17T05:39:52.378Z,7.35
2019-05-17T05:42:22.181Z,7.70
2019-05-17T05:44:52.238Z,6.55
2019-05-17T05:47:22.238Z,6.97
2019-05-17T05:49:52.057Z,6.28
2019-05-17T05:52:21.895Z,6.72
2019-05-17T05:54:52.027Z,6.95
2019-05-17T05:57:21.862Z,7.08
2019-05-17T05:59:51.837Z,6.90
2019-05-17T06:02:21.804Z,7.20
2019-05-17T06:04:51.809Z,7.47
2019-05-17T06:07:21.651Z,6.30
2019-05-17T06:09:51.766Z,7.42
2019-05-17T06:12:27.667Z,7.55
2019-05-17T06:14:52.402Z,6.92
2019-05-17T06:17:21.764Z,7.08
2019-05-17T06:19:51.761Z,7.42
2019-05-17T06:22:22.380Z,7.25
2019-05-17T06:24:52.017Z,7.35
2019-05-17T06:27:21.523Z,7.00
2019-05-17T06:29:51.529Z,6.95
2019-05-17T06:32:22.758Z,7.70
2019-05-17T06:34:51.584Z,7.55
2019-05-17T06:37:22.397Z,8.15
2019-05-17T06:39:52.632Z,7.78
2019-05-17T06:42:29.931Z,7.47
2019-05-17T06:44:52.431Z,7.87
2019-05-17T06:47:22.556Z,8.28
2019-05-17T06:49:53.535Z,8.28
2019-05-17T06:52:23.075Z,7.78
2019-05-17T06:54:52.471Z,8.03
2019-05-17T06:57:23.274Z,8.68
2019-05-17T06:59:51.676Z,7.97
2019-05-17T07:02:20.266Z,9.10
2019-05-17T07:04:50.844Z,7.97
2019-05-17T07:07:30.507Z,8.65
2019-05-17T07:10:00.580Z,8.68
2019-05-17T07:12:30.635Z,8.75
2019-05-17T07:15:01.729Z,8.85
2019-05-17T07:17:30.528Z,8.48
2019-05-17T07:19:59.831Z,10.20
2019-05-17T07:22:29.635Z,10.20
2019-05-17T07:24:59.712Z,9.30
2019-05-17T07:27:38.710Z,9.15
2019-05-17T07:30:01.852Z,10.30
2019-05-17T07:32:30.594Z,9.58
2019-05-17T07:35:00.015Z,9.88
2019-05-17T07:37:30.291Z,10.32
2019-05-17T07:40:04.637Z,10.85
2019-05-17T07:42:30.373Z,10.98
2019-05-17T07:45:00.491Z,10.63
2019-05-17T07:47:29.740Z,10.68
2019-05-17T07:50:01.056Z,12.07
2019-05-17T07:52:30.009Z,12.37
2019-05-17T07:55:02.423Z,12.58
2019-05-17T07:57:30.050Z,11.63
2019-05-17T07:59:59.962Z,12.80
2019-05-17T08:02:30.627Z,12.73
2019-05-17T08:05:00.505Z,12.47
2019-05-17T08:07:30.170Z,13.32
2019-05-17T08:10:00.127Z,12.63
2019-05-17T08:12:30.628Z,12.65
2019-05-17T08:14:59.972Z,12.80
2019-05-17T08:17:30.501Z,12.18
2019-05-17T08:20:00.576Z,13.10
2019-05-17T08:22:29.875Z,12.68
2019-05-17T08:25:00.054Z,14.10
2019-05-17T08:27:29.794Z,13.45
2019-05-17T08:29:59.759Z,14.30
2019-05-17T08:32:31.372Z,13.55
2019-05-17T08:35:00.288Z,13.72
2019-05-17T08:37:30.157Z,13.43
2019-05-17T08:40:00.092Z,14.43
2019-05-17T08:42:29.974Z,14.23
2019-05-17T08:45:00.193Z,13.43
2019-05-17T08:47:30.082Z,14.43
2019-05-17T08:50:00.484Z,13.48
2019-05-17T08:52:29.474Z,14.20
2019-05-17T08:55:00.375Z,12.85
2019-05-17T08:57:30.222Z,13.90
2019-05-17T09:00:00.782Z,13.72
2019-05-17T09:02:30.063Z,13.50
2019-05-17T09:05:00.531Z,14.35
2019-05-17T09:07:29.561Z,15.28
2019-05-17T09:09:58.302Z,14.20
2019-05-17T09:12:26.902Z,14.47
2019-05-17T09:14:56.163Z,14.03
2019-05-17T09:17:24.758Z,14.80
2019-05-17T09:19:54.455Z,13.65
2019-05-17T09:22:23.089Z,13.60
2019-05-17T09:24:51.681Z,13.60
2019-05-17T09:27:21.930Z,14.10
2019-05-17T09:29:50.556Z,13.78
2019-05-17T09:32:20.158Z,15.10
2019-05-17T09:34:49.847Z,13.48
2019-05-17T09:37:22.243Z,13.13
2019-05-17T09:39:49.596Z,14.18
2019-05-17T09:42:20.776Z,13.60
2019-05-17T09:44:49.675Z,12.73
2019-05-17T09:47:20.625Z,13.05
2019-05-17T09:49:50.132Z,12.93
2019-05-17T09:52:20.049Z,13.08
2019-05-17T09:54:50.360Z,14.10
2019-05-17T09:57:20.514Z,13.65
2019-05-17T09:59:49.685Z,13.72
2019-05-17T10:02:20.345Z,13.55
2019-05-17T10:04:50.284Z,14.47
2019-05-17T10:07:20.736Z,14.65
2019-05-17T10:09:50.327Z,13.05
2019-05-17T10:12:20.244Z,13.03
2019-05-17T10:14:49.832Z,14.85
2019-05-17T10:17:21.015Z,13.98
2019-05-17T10:19:49.407Z,12.75
2019-05-17T10:22:20.047Z,12.82
2019-05-17T10:24:48.755Z,12.43
2019-05-17T10:27:19.524Z,11.25
2019-05-17T10:29:50.147Z,11.05
2019-05-17T10:32:20.493Z,10.90
2019-05-17T10:34:49.545Z,10.18
2019-05-17T10:37:20.334Z,10.93
2019-05-17T10:39:50.280Z,11.03
2019-05-17T10:42:21.016Z,9.95
2019-05-17T10:44:51.312Z,9.78
2019-05-17T10:47:20.306Z,9.80
2019-05-17T10:49:49.639Z,8.45
2019-05-17T10:52:20.316Z,8.10
2019-05-17T10:54:48.854Z,8.00
2019-05-17T10:57:19.432Z,7.37
2019-05-17T10:59:49.897Z,6.92
2019-05-17T11:02:19.637Z,6.20
2019-05-17T11:04:50.541Z,6.00
2019-05-17T11:07:19.917Z,7.12
2019-05-17T11:09:50.970Z,7.97
2019-05-17T11:12:19.462Z,6.30
2019-05-17T11:14:52.580Z,5.90
2019-05-17T11:17:18.609Z,5.85
2019-05-17T11:19:47.407Z,5.20
2019-05-17T11:22:16.233Z,4.92
2019-05-17T11:24:45.814Z,5.10
2019-05-17T11:27:14.999Z,5.35
2019-05-17T11:29:43.921Z,5.50
2019-05-17T11:32:12.812Z,5.62
2019-05-17T11:34:42.026Z,4.78
2019-05-17T11:37:10.703Z,5.62
2019-05-17T11:39:40.031Z,6.10
2019-05-17T11:42:12.979Z,5.08
2019-05-17T11:44:41.818Z,4.80
2019-05-17T11:47:10.678Z,4.62
2019-05-17T11:49:39.222Z,4.72
2019-05-17T11:54:31.583Z,4.20
2019-05-17T11:57:00.454Z,3.77
2019-05-17T11:59:29.329Z,4.05
2019-05-17T12:01:58.209Z,5.25
2019-05-17T12:04:27.416Z,4.80
2019-05-17T12:06:56.543Z,4.12
2019-05-17T12:09:37.007Z,5.40
2019-05-17T12:11:55.964Z,4.80
2019-05-17T12:14:24.499Z,4.08
2019-05-17T12:16:53.395Z,4.37
2019-05-17T12:19:22.530Z,4.10
2019-05-17T12:21:51.637Z,3.92
2019-05-17T12:24:21.190Z,3.58
2019-05-17T12:26:49.813Z,4.03
2019-05-17T12:29:18.614Z,3.37
2019-05-17T12:31:47.163Z,3.70
2019-05-17T12:34:15.726Z,4.00
2019-05-17T12:36:44.299Z,4.10
2019-05-17T12:39:13.157Z,4.83
2019-05-17T12:41:42.272Z,3.47
2019-05-17T12:44:11.106Z,3.30
2019-05-17T12:46:39.936Z,3.22
2019-05-17T12:49:08.712Z,2.90
2019-05-17T12:51:37.467Z,8.43
2019-05-17T12:54:05.979Z,5.62
2019-05-17T12:56:34.783Z,16.55
2019-05-17T12:59:03.377Z,6.37
2019-05-17T13:01:32.267Z,6.80
2019-05-17T13:04:01.066Z,4.12
2019-05-17T13:06:29.667Z,3.12
2019-05-17T13:08:58.341Z,4.03
2019-05-17T13:11:27.815Z,3.50
2019-05-17T13:13:57.017Z,21.35
2019-05-17T13:16:26.094Z,5.42
2019-05-17T13:18:55.033Z,4.67
2019-05-17T13:21:24.587Z,3.47
2019-05-17T13:23:53.143Z,4.08
2019-05-17T13:26:22.412Z,5.05
2019-05-17T13:28:50.939Z,6.70
2019-05-17T13:31:19.895Z,10.00
2019-05-17T13:33:48.910Z,4.70
2019-05-17T13:36:17.811Z,5.12
2019-05-17T13:38:46.695Z,3.92
2019-05-17T13:41:16.246Z,3.90
2019-05-17T13:43:45.346Z,5.15
2019-05-17T13:46:14.233Z,3.65
2019-05-17T13:48:43.182Z,4.03
2019-05-17T13:51:12.084Z,3.00
2019-05-17T13:53:40.622Z,3.02
2019-05-17T13:56:09.392Z,4.22
2019-05-17T13:58:38.192Z,8.03
2019-05-17T14:01:07.212Z,5.67
2019-05-17T14:03:35.825Z,4.65
2019-05-17T14:06:04.399Z,3.62
2019-05-17T14:08:33.575Z,3.52
2019-05-17T14:11:02.826Z,3.00
2019-05-17T14:13:31.479Z,4.17
2019-05-17T14:16:01.032Z,4.60
2019-05-17T14:18:29.559Z,4.12
2019-05-17T14:20:58.402Z,4.40
2019-05-17T14:23:27.220Z,4.50
2019-05-17T14:25:56.833Z,3.87
2019-05-17T14:28:25.439Z,4.20
2019-05-17T14:30:54.251Z,3.37
2019-05-17T14:33:22.803Z,4.15
2019-05-17T14:35:51.818Z,4.50
2019-05-17T14:38:20.427Z,6.03
2019-05-17T14:41:07.181Z,4.55
2019-05-17T14:43:19.651Z,3.70
2019-05-17T14:45:48.518Z,10.43
2019-05-17T14:48:17.729Z,3.92
2019-05-17T14:50:46.292Z,9.65
2019-05-17T14:53:15.202Z,4.22
2019-05-17T14:55:44.606Z,4.33
2019-05-17T14:58:13.163Z,4.10
2019-05-17T15:00:41.754Z,4.40
2019-05-17T15:03:10.570Z,4.83
2019-05-17T15:05:39.115Z,4.17
2019-05-17T15:08:07.712Z,4.53
2019-05-17T15:10:37.096Z,4.00
2019-05-17T15:13:06.334Z,3.85
2019-05-17T15:15:34.887Z,3.85
2019-05-17T15:18:03.791Z,3.95
2019-05-17T15:20:32.711Z,3.58
2019-05-17T15:23:01.566Z,4.62
2019-05-17T15:25:30.486Z,4.75
2019-05-17T15:27:59.027Z,4.75
2019-05-17T15:30:27.869Z,4.87
2019-05-17T15:32:56.400Z,4.47
2019-05-17T15:35:24.975Z,4.17
2019-05-17T15:37:54.133Z,4.25
2019-05-17T15:40:22.679Z,4.97
2019-05-17T15:42:51.497Z,3.87
2019-05-17T15:45:20.030Z,3.40
2019-05-17T15:47:48.979Z,4.35
2019-05-17T15:50:17.509Z,4.47
2019-05-17T15:52:46.139Z,3.65
2019-05-17T15:55:14.651Z,3.35
2019-05-17T15:57:43.209Z,3.55
2019-05-17T16:00:11.861Z,4.20
2019-05-17T16:02:40.751Z,3.50
2019-05-17T16:05:09.315Z,3.80
2019-05-17T16:07:37.907Z,3.92
2019-05-17T16:10:06.842Z,3.05
2019-05-17T16:12:35.403Z,2.87
2019-05-17T16:15:04.342Z,2.87
2019-05-17T16:17:33.314Z,2.87
2019-05-17T16:20:02.116Z,3.20
2019-05-17T16:22:30.645Z,3.12
2019-05-17T16:24:59.789Z,2.77
2019-05-17T16:27:28.599Z,3.37
2019-05-17T16:29:57.867Z,2.65
2019-05-17T16:32:27.080Z,2.30
2019-05-17T16:34:56.506Z,3.00
2019-05-17T16:37:25.111Z,3.15
2019-05-17T16:39:54.183Z,2.45
2019-05-17T16:42:22.790Z,2.22
2019-05-17T16:44:51.935Z,2.40
2019-05-17T16:47:20.839Z,2.80
2019-05-17T16:49:49.387Z,2.45
2019-05-17T16:52:18.202Z,2.70
2019-05-17T16:54:46.751Z,2.72
2019-05-17T16:57:15.568Z,2.60
2019-05-17T16:59:44.430Z,2.85
2019-05-17T17:02:12.999Z,1.92
2019-05-17T17:04:41.837Z,2.70
2019-05-17T17:07:10.365Z,2.90
2019-05-17T17:09:38.954Z,2.80
2019-05-17T17:12:07.539Z,16.67
2019-05-17T17:14:36.442Z,5.47
2019-05-17T17:17:10.996Z,3.50
2019-05-17T17:19:35.646Z,5.65
2019-05-17T17:22:04.270Z,6.17
2019-05-17T17:24:33.073Z,4.80
2019-05-17T17:27:01.911Z,2.55
2019-05-17T17:29:30.502Z,5.67
2019-05-17T17:31:59.075Z,5.75
2019-05-17T17:34:28.400Z,2.83
2019-05-17T17:36:57.323Z,2.42
2019-05-17T17:39:26.202Z,2.45
2019-05-17T17:41:54.754Z,7.10
2019-05-17T17:44:23.331Z,3.17
2019-05-17T17:46:52.170Z,1.95
2019-05-17T17:49:21.365Z,1.65
2019-05-17T17:51:50.515Z,1.60
2019-05-17T17:54:19.685Z,1.87
2019-05-17T17:56:48.447Z,1.50
2019-05-17T17:59:16.991Z,1.80
2019-05-17T18:01:45.583Z,1.90
2019-05-17T18:04:14.542Z,1.80
2019-05-17T18:06:43.510Z,1.70
2019-05-17T18:09:12.288Z,1.70
2019-05-17T18:11:40.815Z,1.65
2019-05-17T18:14:13.318Z,1.55
2019-05-17T18:16:40.303Z,1.72
2019-05-17T18:19:09.360Z,1.52
2019-05-17T18:21:38.183Z,1.65
2019-05-17T18:24:06.718Z,1.67
2019-05-17T18:26:35.644Z,1.72
2019-05-17T18:29:07.677Z,1.85
2019-05-17T18:31:34.522Z,1.67
2019-05-17T18:34:03.842Z,1.60
2019-05-17T18:36:32.651Z,1.47
2019-05-17T18:39:01.188Z,1.55
2019-05-17T18:41:29.801Z,1.67
2019-05-17T18:43:58.350Z,1.35
2019-05-17T18:46:26.948Z,1.65
2019-05-17T18:48:55.509Z,1.70
2019-05-17T18:51:25.070Z,1.60
2019-05-17T18:53:53.607Z,1.77
2019-05-17T18:56:22.410Z,1.57
2019-05-17T18:58:51.347Z,1.60
2019-05-17T19:01:20.136Z,1.40
2019-05-17T19:03:49.226Z,1.30
2019-05-17T19:06:18.322Z,1.45
2019-05-17T19:09:06.543Z,1.50
2019-05-17T19:11:54.387Z,1.57
2019-05-17T19:14:43.428Z,1.40
2019-05-17T19:17:25.244Z,1.80
2019-05-17T19:20:06.320Z,1.70
2019-05-17T19:22:47.512Z,1.90
2019-05-17T19:25:28.462Z,1.67
2019-05-17T19:28:09.619Z,1.67
2019-05-17T19:30:50.450Z,2.05
2019-05-17T19:33:30.964Z,1.82
2019-05-17T19:36:11.648Z,1.45
2019-05-17T19:38:52.917Z,2.10
2019-05-17T19:41:34.207Z,1.77
2019-05-17T19:46:58.887Z,1.50
2019-05-17T19:52:31.895Z,1.67
2019-05-17T19:55:12.883Z,1.72
2019-05-17T20:45:43.219Z,1.47
2019-05-17T20:48:25.875Z,1.82
2019-05-17T20:51:06.509Z,2.08
2019-05-17T20:53:47.539Z,2.05
2019-05-17T20:56:33.108Z,1.90
2019-05-17T20:59:10.770Z,1.95
2019-05-17T21:01:51.581Z,2.20
2019-05-17T21:04:32.191Z,1.90
2019-05-17T21:07:12.791Z,2.05
2019-05-17T21:09:53.513Z,2.12
2019-05-17T21:12:34.123Z,2.42
2019-05-17T21:15:15.068Z,2.00
2019-05-17T21:17:55.779Z,2.37
2019-05-17T21:20:36.218Z,2.17
2019-05-17T21:23:17.343Z,2.60
2019-05-17T21:25:59.371Z,2.50
2019-05-17T21:28:40.047Z,2.58
2019-05-17T21:31:20.855Z,2.35
2019-05-17T21:34:01.986Z,2.58
2019-05-17T21:36:42.634Z,2.30
2019-05-17T21:39:23.127Z,2.77
2019-05-17T21:42:03.392Z,2.60
2019-05-17T21:44:43.634Z,2.70
2019-05-17T21:47:24.253Z,2.58
2019-05-17T21:50:04.558Z,2.40
2019-05-17T21:52:44.795Z,2.80
2019-05-17T21:55:25.052Z,2.60
2019-05-17T21:58:05.594Z,2.52
2019-05-17T22:00:46.491Z,2.37
2019-05-17T22:03:27.502Z,2.62
2019-05-17T22:06:08.386Z,2.83
2019-05-17T22:11:44.827Z,2.65
2019-05-17T22:14:25.225Z,2.83
2019-05-17T22:17:05.721Z,2.65
2019-05-17T22:19:46.622Z,2.58
2019-05-17T22:22:27.678Z,2.87
2019-05-17T22:25:08.478Z,2.50
2019-05-17T22:27:49.354Z,2.27
2019-05-17T22:30:30.733Z,2.50
2019-05-17T22:33:11.436Z,2.50
2019-05-17T22:35:51.983Z,2.47
2019-05-17T22:38:32.466Z,2.47
2019-05-17T22:41:12.779Z,2.40
2019-05-17T22:43:53.620Z,2.65
2019-05-17T22:46:36.348Z,2.65
2019-05-17T22:49:16.772Z,2.50
2019-05-17T22:51:57.889Z,2.70
2019-05-17T22:54:38.260Z,2.45
2019-05-17T22:57:19.758Z,2.62
2019-05-17T23:00:00.692Z,2.35
2019-05-17T23:02:41.274Z,2.50
2019-05-17T23:05:25.985Z,2.55
2019-05-17T23:08:04.275Z,2.52
2019-05-17T23:10:45.003Z,2.22
2019-05-17T23:13:25.511Z,2.40
2019-05-17T23:16:07.488Z,2.30
2019-05-17T23:21:30.869Z,2.52
2019-05-17T23:24:12.010Z,2.22
2019-05-17T23:26:52.509Z,2.50
2019-05-17T23:29:33.392Z,2.05
2019-05-17T23:34:57.599Z,2.60
2019-05-17T23:40:28.264Z,2.75
2019-05-17T23:45:54.592Z,2.37
2019-05-17T23:51:20.911Z,2.25
